Time;durP1;ratioP1;P1;durP2;ratioP2;P2;SDS_P1;SDS_P2;PMS_P1;PMS_P2;Temp;Humidity;BMP_temperature;BMP_pressure;BME280_temperature;BME280_humidity;BME280_pressure;Samples;Min_cycle;Max_cycle;Signal;HPM_P1;HPM_P2
2021/12/20 00:01:09;;;;;;;1.70;0.80;;;;;;;-0.26;100.00;101377.25;4987065;28;20064;-83
2021/12/20 00:03:36;;;;;;;3.43;1.10;;;;;;;-0.14;100.00;101375.09;4983898;28;20042;-83
2021/12/20 00:06:03;;;;;;;2.70;1.00;;;;;;;-0.16;100.00;101375.06;4987774;28;20037;-82
2021/12/20 00:08:29;;;;;;;1.50;0.90;;;;;;;-0.13;100.00;101382.06;5002803;28;20053;-83
2021/12/20 00:10:56;;;;;;;3.27;1.30;;;;;;;-0.28;100.00;101378.09;5004770;28;20047;-83
2021/12/20 00:13:23;;;;;;;0.90;0.60;;;;;;;-0.32;100.00;101370.16;4992324;28;20047;-84
2021/12/20 00:15:50;;;;;;;1.40;0.73;;;;;;;-0.39;100.00;101369.06;4997674;28;20065;-82
2021/12/20 00:18:17;;;;;;;1.67;1.10;;;;;;;-0.35;100.00;101370.91;4985655;28;20073;-84
2021/12/20 00:20:51;;;;;;;2.70;1.00;;;;;;;-0.33;100.00;101371.88;4991552;28;20046;-84
2021/12/20 00:23:18;;;;;;;1.80;0.73;;;;;;;-0.40;100.00;101375.06;4986085;28;20071;-82
2021/12/20 00:25:48;;;;;;;1.43;0.63;;;;;;;-0.41;100.00;101383.69;4998817;28;20045;-82
2021/12/20 00:28:18;;;;;;;2.50;1.07;;;;;;;-0.24;100.00;101389.47;4985842;28;20064;-82
2021/12/20 00:30:45;;;;;;;4.97;1.13;;;;;;;-0.39;100.00;101387.22;4987488;28;20053;-83
2021/12/20 00:33:12;;;;;;;2.80;0.80;;;;;;;-0.36;100.00;101389.91;4987982;28;20049;-83
2021/12/20 00:35:42;;;;;;;3.27;0.90;;;;;;;-0.26;100.00;101393.72;5002881;28;20037;-83
2021/12/20 00:41:00;;;;;;;1.80;0.90;;;;;;;-0.32;100.00;101396.13;5004795;28;20738;-83
2021/12/20 00:43:28;;;;;;;2.63;1.00;;;;;;;-0.40;100.00;101398.44;4984423;28;20123;-84
2021/12/20 00:45:55;;;;;;;1.07;0.60;;;;;;;-0.39;100.00;101389.81;5020679;28;20140;-82
2021/12/20 00:48:22;;;;;;;2.13;0.83;;;;;;;-0.38;100.00;101395.91;4981076;28;20462;-83
2021/12/20 00:50:49;;;;;;;1.43;1.33;;;;;;;-0.40;100.00;101406.22;4994869;28;20207;-83
2021/12/20 00:53:18;;;;;;;16.23;1.60;;;;;;;-0.42;100.00;101402.69;4999772;28;20049;-84
2021/12/20 00:55:50;;;;;;;3.10;1.00;;;;;;;-0.39;100.00;101394.13;4980052;28;20050;-83
2021/12/20 00:58:20;;;;;;;1.90;0.80;;;;;;;-0.41;100.00;101403.59;4978417;28;20531;-83
2021/12/20 01:00:54;;;;;;;1.87;1.03;;;;;;;-0.40;100.00;101397.56;5012578;28;20048;-84
2021/12/20 01:03:21;;;;;;;2.22;1.10;;;;;;;-0.39;100.00;101407.09;4983078;28;20045;-84
2021/12/20 01:05:48;;;;;;;1.67;0.93;;;;;;;-0.45;100.00;101396.50;5002566;28;20048;-83
2021/12/20 01:08:18;;;;;;;1.17;0.90;;;;;;;-0.46;100.00;101399.94;5000679;28;20402;-83
2021/12/20 01:10:49;;;;;;;1.97;0.87;;;;;;;-0.57;100.00;101394.34;4994798;28;20055;-83
2021/12/20 01:13:23;;;;;;;1.20;0.80;;;;;;;-0.55;100.00;101399.59;5023686;28;20045;-84
2021/12/20 01:15:54;;;;;;;1.87;1.33;;;;;;;-0.63;100.00;101399.31;4993929;28;20398;-84
2021/12/20 01:18:24;;;;;;;3.17;0.80;;;;;;;-0.62;100.00;101417.53;4987402;28;20053;-84
2021/12/20 01:20:51;;;;;;;2.80;0.80;;;;;;;-0.69;100.00;101415.53;5011234;28;20103;-84
2021/12/20 01:23:19;;;;;;;1.93;0.80;;;;;;;-0.61;100.00;101423.59;4991038;28;20509;-84
2021/12/20 01:25:46;;;;;;;5.83;1.53;;;;;;;-0.58;100.00;101421.13;5006200;28;20391;-84
2021/12/20 01:28:13;;;;;;;1.37;0.80;;;;;;;-0.68;100.00;101422.47;5000018;28;20038;-83
2021/12/20 01:30:40;;;;;;;1.80;0.83;;;;;;;-0.67;100.00;101413.91;4984750;28;20045;-84
2021/12/20 01:33:11;;;;;;;2.33;0.97;;;;;;;-0.71;100.00;101424.97;4985837;28;20450;-85
2021/12/20 01:35:38;;;;;;;2.73;1.23;;;;;;;-0.80;100.00;101428.94;4987413;28;20498;-84
2021/12/20 01:38:09;;;;;;;5.37;1.10;;;;;;;-0.83;100.00;101421.94;4985688;28;20045;-84
2021/12/20 01:40:36;;;;;;;1.43;0.80;;;;;;;-0.85;100.00;101423.56;4999688;28;20530;-85
2021/12/20 01:43:04;;;;;;;3.50;0.90;;;;;;;-0.87;100.00;101430.41;5008414;28;20518;-82
2021/12/20 01:45:31;;;;;;;2.30;1.10;;;;;;;-0.89;100.00;101432.94;5010453;28;20038;-83
2021/12/20 01:48:09;;;;;;;2.70;1.10;;;;;;;-0.79;100.00;101430.72;4998814;28;20049;-85
2021/12/20 01:53:13;;;;;;;2.30;0.90;;;;;;;-0.92;100.00;101424.19;4988874;28;20045;-82
2021/12/20 01:55:40;;;;;;;2.27;1.13;;;;;;;-0.97;100.00;101417.94;5008114;28;20037;-83
2021/12/20 01:58:07;;;;;;;3.47;1.00;;;;;;;-1.00;100.00;101428.19;4982584;28;20064;-84
2021/12/20 02:00:34;;;;;;;5.43;1.13;;;;;;;-1.04;100.00;101428.88;4994006;28;20041;-82
2021/12/20 02:11:36;;;;;;;3.80;1.37;;;;;;;-1.04;100.00;101437.53;5015737;28;20651;-87
2021/12/20 02:14:05;;;;;;;2.10;0.97;;;;;;;-1.08;100.00;101434.78;4958552;28;20038;-87
2021/12/20 02:16:33;;;;;;;2.13;1.00;;;;;;;-1.06;100.00;101427.94;4961430;28;20033;-87
2021/12/20 02:19:05;;;;;;;4.57;1.37;;;;;;;-1.13;100.00;101425.09;4988291;28;20049;-86
2021/12/20 02:21:32;;;;;;;4.47;0.90;;;;;;;-1.18;100.00;101436.13;4979660;28;20038;-86
2021/12/20 02:23:59;;;;;;;3.47;0.83;;;;;;;-1.22;100.00;101442.00;4972717;28;20053;-86
2021/12/20 02:26:26;;;;;;;5.00;1.07;;;;;;;-1.20;100.00;101445.56;4964371;28;20038;-86
2021/12/20 02:28:55;;;;;;;1.60;0.83;;;;;;;-1.23;100.00;101437.66;4964362;28;20046;-87
2021/12/20 02:39:20;;;;;;;3.10;1.00;;;;;;;-1.37;100.00;101437.09;4987959;28;20517;-87
2021/12/20 02:41:47;;;;;;;3.43;1.07;;;;;;;-1.40;100.00;101431.81;4982376;28;20052;-87
2021/12/20 02:44:18;;;;;;;2.43;1.73;;;;;;;-1.31;100.00;101431.28;4968216;28;20124;-87
2021/12/20 02:46:51;;;;;;;5.63;1.00;;;;;;;-1.44;100.00;101435.97;4962063;28;20045;-87
2021/12/20 02:49:20;;;;;;;3.30;1.03;;;;;;;-1.47;100.00;101435.84;4967655;28;20038;-86
2021/12/20 02:51:53;;;;;;;1.83;1.00;;;;;;;-1.50;100.00;101434.84;4971899;28;20789;-87
2021/12/20 02:54:22;;;;;;;2.23;0.77;;;;;;;-1.55;100.00;101434.66;4956568;28;20046;-87
2021/12/20 02:56:49;;;;;;;3.97;0.97;;;;;;;-1.57;100.00;101432.84;4990372;28;20087;-86
2021/12/20 02:59:16;;;;;;;2.83;0.97;;;;;;;-1.60;100.00;101419.72;4966585;28;20215;-86
2021/12/20 03:01:46;;;;;;;2.27;0.93;;;;;;;-1.60;100.00;101427.50;4974832;28;20457;-86
2021/12/20 03:04:13;;;;;;;3.63;1.10;;;;;;;-1.64;100.00;101426.50;4980237;28;20046;-85
2021/12/20 03:06:41;;;;;;;4.90;0.90;;;;;;;-1.61;100.00;101426.63;4970060;28;20069;-84
2021/12/20 03:09:13;;;;;;;3.43;1.00;;;;;;;-1.62;100.00;101418.78;4967693;28;20068;-86
2021/12/20 03:11:41;;;;;;;2.53;0.93;;;;;;;-1.67;100.00;101418.63;4967579;28;20049;-85
2021/12/20 03:14:15;;;;;;;1.17;0.80;;;;;;;-1.69;100.00;101428.00;4973899;28;20038;-86
2021/12/20 03:16:42;;;;;;;2.88;0.85;;;;;;;-1.65;100.00;101436.81;4944328;28;20042;-85
2021/12/20 03:19:09;;;;;;;3.57;1.50;;;;;;;-1.66;100.00;101440.22;4970416;28;20074;-85
2021/12/20 03:21:36;;;;;;;2.73;1.10;;;;;;;-1.71;100.00;101427.06;4985829;28;20080;-85
2021/12/20 03:24:04;;;;;;;2.40;1.00;;;;;;;-1.73;100.00;101437.38;5000983;28;20049;-86
2021/12/20 03:26:31;;;;;;;1.47;0.80;;;;;;;-1.79;100.00;101447.47;4985662;28;20466;-87
2021/12/20 03:28:59;;;;;;;2.73;1.00;;;;;;;-1.80;100.00;101443.13;5000331;28;20059;-87
2021/12/20 03:31:26;;;;;;;1.70;0.83;;;;;;;-1.86;100.00;101441.97;4985908;28;20141;-88
2021/12/20 03:33:54;;;;;;;3.60;1.10;;;;;;;-1.87;100.00;101446.25;4985287;28;20046;-87
2021/12/20 03:36:22;;;;;;;2.03;1.03;;;;;;;-1.88;100.00;101443.63;4985974;28;20045;-89
2021/12/20 03:39:09;;;;;;;3.30;1.00;;;;;;;-1.88;100.00;101446.22;4988421;28;20515;-88
2021/12/20 03:41:37;;;;;;;1.47;1.00;;;;;;;-1.94;100.00;101451.13;4986745;28;20430;-87
2021/12/20 03:44:05;;;;;;;6.10;1.50;;;;;;;-1.99;100.00;101454.41;4999572;28;20045;-86
2021/12/20 03:46:32;;;;;;;2.40;1.27;;;;;;;-2.02;100.00;101462.06;4984008;28;20037;-86
2021/12/20 03:48:59;;;;;;;5.77;1.20;;;;;;;-1.87;100.00;101454.03;4999095;28;20073;-86
2021/12/20 03:51:27;;;;;;;4.63;1.00;;;;;;;-1.96;100.00;101450.19;4984388;28;20045;-85
2021/12/20 03:53:54;;;;;;;3.93;1.17;;;;;;;-1.97;100.00;101446.69;4975408;28;20565;-86
2021/12/20 03:56:21;;;;;;;1.70;1.00;;;;;;;-2.04;100.00;101449.84;4980818;28;20137;-88
2021/12/20 03:58:48;;;;;;;1.67;0.90;;;;;;;-1.95;100.00;101450.22;5000122;28;20042;-84
2021/12/20 04:01:16;;;;;;;2.23;1.10;;;;;;;-2.00;100.00;101452.66;4968818;28;20046;-83
2021/12/20 04:03:43;;;;;;;3.60;1.40;;;;;;;-1.98;100.00;101455.28;4980982;28;20524;-86
2021/12/20 04:06:12;;;;;;;2.67;1.30;;;;;;;-1.98;100.00;101453.59;4984547;28;20064;-84
2021/12/20 04:08:40;;;;;;;2.80;1.20;;;;;;;-1.93;100.00;101460.66;4970395;28;20069;-86
2021/12/20 04:11:08;;;;;;;5.37;1.20;;;;;;;-1.95;100.00;101463.19;4980149;28;20045;-87
2021/12/20 04:13:37;;;;;;;4.57;1.80;;;;;;;-1.99;100.00;101466.47;4983744;28;20053;-87
2021/12/20 04:16:07;;;;;;;6.63;1.17;;;;;;;-2.07;100.00;101473.91;4999651;28;20045;-85
2021/12/20 04:18:37;;;;;;;2.40;1.10;;;;;;;-2.10;100.00;101466.03;4983594;28;20049;-85
2021/12/20 04:21:08;;;;;;;3.50;1.07;;;;;;;-2.07;100.00;101467.84;4984757;28;20119;-84
2021/12/20 04:23:36;;;;;;;6.37;1.50;;;;;;;-2.07;100.00;101465.25;4983508;28;20051;-86
2021/12/20 04:26:04;;;;;;;2.77;0.97;;;;;;;-2.21;100.00;101469.81;4984654;28;20046;-86
2021/12/20 04:28:32;;;;;;;3.73;1.10;;;;;;;-2.08;100.00;101477.31;4998526;28;20045;-86
2021/12/20 04:31:01;;;;;;;1.50;1.03;;;;;;;-2.19;100.00;101469.88;4984753;28;20045;-85
2021/12/20 04:33:29;;;;;;;2.17;1.17;;;;;;;-2.13;100.00;101476.22;4983168;28;20053;-86
2021/12/20 04:35:57;;;;;;;6.93;1.53;;;;;;;-2.21;100.00;101466.34;4968747;28;20513;-86
2021/12/20 04:38:30;;;;;;;5.17;1.10;;;;;;;-2.23;100.00;101471.47;4979017;28;20053;-85
2021/12/20 04:40:59;;;;;;;1.57;0.97;;;;;;;-2.25;100.00;101462.75;4980417;28;20479;-86
2021/12/20 04:43:28;;;;;;;3.63;1.10;;;;;;;-2.19;100.00;101469.88;4962716;28;20141;-86
2021/12/20 04:45:59;;;;;;;2.07;1.00;;;;;;;-2.18;100.00;101476.88;4980452;28;20132;-86
2021/12/20 04:48:26;;;;;;;3.53;1.60;;;;;;;-2.24;100.00;101474.88;4963298;28;20050;-86
2021/12/20 04:50:52;;;;;;;4.80;2.00;;;;;;;-2.12;100.00;101479.69;4970608;28;20504;-85
2021/12/20 04:53:20;;;;;;;5.57;1.10;;;;;;;-2.23;100.00;101478.34;4959663;28;20507;-86
2021/12/20 04:55:52;;;;;;;5.27;2.33;;;;;;;-2.21;100.00;101476.69;4963040;28;22277;-86
2021/12/20 04:58:21;;;;;;;5.10;1.30;;;;;;;-2.22;100.00;101482.69;4969450;28;20057;-86
2021/12/20 05:00:48;;;;;;;3.70;1.03;;;;;;;-2.17;100.00;101487.28;4963899;28;20069;-87
2021/12/20 05:03:23;;;;;;;3.17;1.17;;;;;;;-2.18;100.00;101484.63;4971638;28;20049;-85
2021/12/20 05:06:05;;;;;;;4.13;1.80;;;;;;;-2.30;100.00;101490.13;5008107;28;20049;-86
2021/12/20 05:08:36;;;;;;;3.80;1.63;;;;;;;-2.17;100.00;101501.94;4962344;28;20480;-86
2021/12/20 05:11:06;;;;;;;4.33;1.30;;;;;;;-2.27;100.00;101496.34;4964365;28;20045;-87
2021/12/20 05:13:32;;;;;;;3.07;1.00;;;;;;;-2.29;100.00;101495.38;4964197;28;20528;-87
2021/12/20 05:15:59;;;;;;;2.50;1.00;;;;;;;-2.34;100.00;101496.00;4964757;28;20521;-87
2021/12/20 05:18:27;;;;;;;2.83;1.13;;;;;;;-2.24;100.00;101498.16;4956640;28;20511;-87
2021/12/20 05:20:55;;;;;;;5.77;1.37;;;;;;;-2.30;100.00;101503.94;4964389;28;20046;-87
2021/12/20 05:23:22;;;;;;;5.97;1.30;;;;;;;-2.32;100.00;101515.06;4978280;28;20041;-85
2021/12/20 05:25:49;;;;;;;2.50;1.07;;;;;;;-2.37;100.00;101520.00;4964320;28;20124;-84
2021/12/20 05:28:16;;;;;;;3.07;0.87;;;;;;;-2.33;100.00;101521.94;4961683;28;20428;-84
2021/12/20 05:30:48;;;;;;;4.07;1.07;;;;;;;-2.37;100.00;101513.94;4976644;28;20578;-83
2021/12/20 05:33:15;;;;;;;2.83;1.00;;;;;;;-2.41;100.00;101510.34;4965411;28;20496;-85
2021/12/20 05:35:42;;;;;;;2.13;0.90;;;;;;;-2.42;100.00;101518.06;4962987;28;20547;-85
2021/12/20 05:38:08;;;;;;;3.37;1.10;;;;;;;-2.32;100.00;101525.41;4962197;28;20499;-83
2021/12/20 05:40:35;;;;;;;4.27;1.40;;;;;;;-2.30;100.00;101523.78;4981796;28;20092;-83
2021/12/20 05:43:03;;;;;;;2.30;1.20;;;;;;;-2.41;100.00;101522.41;4979033;28;20041;-84
2021/12/20 05:45:30;;;;;;;2.13;1.20;;;;;;;-2.41;100.00;101519.81;4978736;28;20051;-84
2021/12/20 05:47:56;;;;;;;6.80;1.10;;;;;;;-2.36;100.00;101514.00;4982733;28;20133;-84
2021/12/20 05:50:25;;;;;;;2.50;1.03;;;;;;;-2.37;100.00;101511.38;4983987;28;20121;-84
2021/12/20 05:52:52;;;;;;;2.73;0.93;;;;;;;-2.36;100.00;101513.13;4962539;28;20052;-84
2021/12/20 05:55:19;;;;;;;3.43;1.10;;;;;;;-2.40;100.00;101514.72;4969007;28;20049;-83
2021/12/20 05:57:46;;;;;;;5.80;1.57;;;;;;;-2.35;100.00;101521.00;4977106;28;20510;-84
2021/12/20 06:00:16;;;;;;;4.70;1.30;;;;;;;-2.35;100.00;101520.09;4969004;28;20479;-83
2021/12/20 06:02:44;;;;;;;1.47;1.17;;;;;;;-2.47;100.00;101524.72;4959143;28;20042;-83
2021/12/20 06:05:11;;;;;;;6.77;1.07;;;;;;;-2.38;100.00;101527.72;4956302;28;20105;-85
2021/12/20 06:07:40;;;;;;;3.77;1.37;;;;;;;-2.23;100.00;101535.28;4964635;28;20100;-84
2021/12/20 06:10:10;;;;;;;4.13;1.20;;;;;;;-2.39;100.00;101537.19;4987286;28;20057;-85
2021/12/20 06:12:37;;;;;;;10.10;2.27;;;;;;;-2.36;100.00;101542.47;4977648;28;20050;-84
2021/12/20 06:15:04;;;;;;;6.17;1.50;;;;;;;-2.44;100.00;101541.25;4970262;28;20080;-84
2021/12/20 06:17:30;;;;;;;2.37;1.17;;;;;;;-2.46;100.00;101542.88;4969435;28;20053;-85
2021/12/20 06:19:57;;;;;;;1.97;1.03;;;;;;;-2.49;100.00;101545.34;4978977;28;20092;-84
2021/12/20 06:22:24;;;;;;;6.10;1.13;;;;;;;-2.48;100.00;101544.53;4976839;28;20038;-85
2021/12/20 06:24:51;;;;;;;2.87;1.40;;;;;;;-2.56;100.00;101549.34;4974298;28;20042;-86
2021/12/20 06:27:18;;;;;;;3.17;1.10;;;;;;;-2.52;100.00;101540.03;4976252;28;20057;-83
2021/12/20 06:29:44;;;;;;;2.80;0.90;;;;;;;-2.50;100.00;101550.44;4975926;28;20396;-85
2021/12/20 06:32:11;;;;;;;3.00;1.50;;;;;;;-2.57;100.00;101544.97;4986380;28;20042;-85
2021/12/20 06:34:39;;;;;;;2.80;1.20;;;;;;;-2.55;100.00;101552.81;4957067;28;20053;-85
2021/12/20 06:37:06;;;;;;;4.53;1.23;;;;;;;-2.58;100.00;101547.50;4947987;28;20035;-84
2021/12/20 06:39:33;;;;;;;4.23;1.93;;;;;;;-2.61;100.00;101548.25;4974066;28;20491;-87
2021/12/20 06:42:01;;;;;;;11.40;6.63;;;;;;;-2.46;100.00;101561.00;4961911;28;20046;-86
2021/12/20 06:44:28;;;;;;;8.57;4.90;;;;;;;-2.27;100.00;101547.19;4967279;28;20056;-86
2021/12/20 06:46:55;;;;;;;7.73;4.67;;;;;;;-2.36;100.00;101554.53;4962467;28;20490;-86
2021/12/20 06:49:23;;;;;;;11.67;5.97;;;;;;;-2.40;100.00;101568.16;4979136;28;20061;-88
2021/12/20 06:51:49;;;;;;;13.07;5.50;;;;;;;-2.32;100.00;101561.63;4961954;28;20056;-87
2021/12/20 06:54:18;;;;;;;6.30;4.87;;;;;;;-2.37;100.00;101579.53;4965185;28;20104;-86
2021/12/20 06:56:45;;;;;;;4.30;2.73;;;;;;;-2.33;100.00;101578.88;4979854;28;20130;-86
2021/12/20 06:59:12;;;;;;;6.60;1.97;;;;;;;-2.20;100.00;101571.66;4958967;28;20089;-86
2021/12/20 07:01:41;;;;;;;4.40;2.30;;;;;;;-2.28;100.00;101574.78;4978495;28;21495;-90
2021/12/20 07:04:08;;;;;;;3.23;1.60;;;;;;;-2.39;100.00;101573.41;4961835;28;20534;-89
2021/12/20 07:06:36;;;;;;;3.10;1.50;;;;;;;-2.45;100.00;101580.88;4960356;28;20041;-89
2021/12/20 07:09:04;;;;;;;6.87;2.13;;;;;;;-2.47;100.00;101577.34;4975710;28;20081;-88
2021/12/20 07:11:31;;;;;;;7.23;2.30;;;;;;;-2.37;100.00;101574.34;4981118;28;20042;-88
2021/12/20 07:13:57;;;;;;;5.63;2.33;;;;;;;-2.42;100.00;101581.03;4964676;28;20077;-88
2021/12/20 07:16:25;;;;;;;6.73;2.30;;;;;;;-2.53;100.00;101570.97;4988250;28;20120;-86
2021/12/20 07:18:51;;;;;;;2.97;1.90;;;;;;;-2.50;100.00;101590.16;4984570;28;20045;-87
2021/12/20 07:21:18;;;;;;;8.47;2.23;;;;;;;-2.50;100.00;101586.66;4973655;28;20042;-88
2021/12/20 07:23:45;;;;;;;10.30;2.13;;;;;;;-2.47;100.00;101597.16;4979544;28;20050;-87
2021/12/20 07:26:12;;;;;;;3.20;1.93;;;;;;;-2.68;100.00;101597.91;4972654;28;20069;-88
2021/12/20 07:28:41;;;;;;;2.07;1.10;;;;;;;-2.69;100.00;101603.91;4984520;28;20041;-88
2021/12/20 07:31:12;;;;;;;7.23;1.60;;;;;;;-2.63;100.00;101603.28;4966371;28;20484;-87
2021/12/20 07:33:42;;;;;;;9.30;2.40;;;;;;;-2.60;100.00;101606.94;4969509;28;20141;-88
2021/12/20 07:36:09;;;;;;;2.93;1.60;;;;;;;-2.63;100.00;101618.81;4967065;28;20050;-88
2021/12/20 07:38:36;;;;;;;8.40;2.60;;;;;;;-2.65;100.00;101620.44;4982351;28;20529;-88
2021/12/20 07:41:03;;;;;;;2.53;1.27;;;;;;;-2.66;100.00;101616.09;4986611;28;20097;-88
2021/12/20 07:43:30;;;;;;;3.83;1.13;;;;;;;-2.69;100.00;101621.09;4974049;28;20049;-86
2021/12/20 07:45:57;;;;;;;3.63;1.83;;;;;;;-2.59;100.00;101629.41;4980583;28;20081;-86
2021/12/20 07:48:25;;;;;;;3.40;1.20;;;;;;;-2.65;100.00;101631.69;4988686;28;20034;-88
2021/12/20 07:50:52;;;;;;;3.07;1.17;;;;;;;-2.63;100.00;101632.63;4966667;28;20112;-88
2021/12/20 07:53:19;;;;;;;2.30;1.00;;;;;;;-2.65;100.00;101639.44;4982644;28;20038;-87
2021/12/20 07:55:48;;;;;;;5.07;1.50;;;;;;;-2.67;100.00;101630.72;4968192;28;20046;-86
2021/12/20 07:58:16;;;;;;;2.97;1.17;;;;;;;-2.59;100.00;101638.88;4957163;28;20043;-87
2021/12/20 08:00:43;;;;;;;5.70;1.60;;;;;;;-2.54;100.00;101647.72;4982066;28;20046;-86
2021/12/20 08:03:10;;;;;;;7.90;2.23;;;;;;;-2.56;100.00;101649.34;4974980;28;20073;-88
2021/12/20 08:05:37;;;;;;;2.30;1.13;;;;;;;-2.49;100.00;101651.41;4979343;28;20072;-87
2021/12/20 08:08:05;;;;;;;4.83;1.77;;;;;;;-2.51;100.00;101652.16;4980396;28;20041;-88
2021/12/20 08:10:32;;;;;;;2.20;1.00;;;;;;;-2.48;100.00;101655.78;4963181;28;20060;-87
2021/12/20 08:12:59;;;;;;;4.07;1.17;;;;;;;-2.42;100.00;101662.97;4964761;28;20077;-86
2021/12/20 08:15:27;;;;;;;4.60;2.03;;;;;;;-2.43;100.00;101662.06;4963299;28;20038;-87
2021/12/20 08:17:54;;;;;;;4.50;1.67;;;;;;;-2.43;100.00;101664.66;4975381;28;20038;-87
2021/12/20 08:20:22;;;;;;;3.77;1.10;;;;;;;-2.43;100.00;101669.84;4974393;28;20158;-87
2021/12/20 08:22:49;;;;;;;2.83;1.20;;;;;;;-2.43;100.00;101669.84;4979814;28;20049;-88
2021/12/20 08:25:18;;;;;;;5.23;1.47;;;;;;;-2.33;100.00;101672.03;4979332;28;20559;-86
2021/12/20 08:27:46;;;;;;;5.70;1.93;;;;;;;-2.22;100.00;101663.88;4980060;28;20107;-86
2021/12/20 08:30:13;;;;;;;5.03;1.93;;;;;;;-2.19;100.00;101662.31;4962694;28;20491;-87
2021/12/20 08:32:40;;;;;;;4.20;1.27;;;;;;;-2.19;100.00;101667.50;4983259;28;20084;-88
2021/12/20 08:35:08;;;;;;;4.07;2.10;;;;;;;-2.17;100.00;101659.84;4962171;28;20038;-87
2021/12/20 08:37:35;;;;;;;3.83;1.07;;;;;;;-2.13;100.00;101662.63;4976598;28;20522;-87
2021/12/20 08:40:04;;;;;;;3.03;1.23;;;;;;;-2.10;100.00;101659.28;4963782;28;20125;-87
2021/12/20 08:42:30;;;;;;;4.83;1.43;;;;;;;-2.03;100.00;101656.16;4963957;28;20139;-87
2021/12/20 08:44:57;;;;;;;5.37;1.63;;;;;;;-2.05;100.00;101665.56;4980792;28;20045;-87
2021/12/20 08:47:24;;;;;;;4.13;1.23;;;;;;;-1.93;100.00;101668.75;4963534;28;20048;-87
2021/12/20 08:49:51;;;;;;;4.77;1.60;;;;;;;-1.98;100.00;101665.03;4961884;28;20057;-86
2021/12/20 08:52:18;;;;;;;6.03;1.50;;;;;;;-1.96;100.00;101671.16;4962406;28;20690;-87
2021/12/20 08:54:44;;;;;;;4.43;1.57;;;;;;;-1.93;100.00;101671.31;4983254;28;20045;-87
2021/12/20 08:57:11;;;;;;;3.87;1.60;;;;;;;-1.85;100.00;101672.56;4971715;28;20072;-86
2021/12/20 08:59:38;;;;;;;4.37;2.20;;;;;;;-1.91;100.00;101679.16;4958060;28;20057;-86
2021/12/20 09:02:07;;;;;;;4.63;2.80;;;;;;;-1.94;100.00;101673.81;4977880;28;20073;-87
2021/12/20 09:04:35;;;;;;;6.50;2.33;;;;;;;-1.84;100.00;101679.53;4963691;28;20549;-86
2021/12/20 09:07:03;;;;;;;9.93;2.23;;;;;;;-1.80;100.00;101677.94;4961888;28;20506;-87
2021/12/20 09:09:36;;;;;;;7.17;1.80;;;;;;;-1.66;100.00;101669.09;4960787;28;20053;-88
2021/12/20 09:12:04;;;;;;;2.70;1.50;;;;;;;-1.63;100.00;101674.41;4994826;28;20470;-87
2021/12/20 09:14:33;;;;;;;10.67;3.17;;;;;;;-1.51;100.00;101687.03;4992547;28;20046;-86
2021/12/20 09:17:01;;;;;;;5.80;2.20;;;;;;;-1.48;100.00;101688.06;4960722;28;20050;-87
2021/12/20 09:19:28;;;;;;;3.77;1.60;;;;;;;-1.56;100.00;101692.00;4975860;28;20065;-87
2021/12/20 09:21:57;;;;;;;3.83;1.50;;;;;;;-1.48;100.00;101692.34;4978175;28;20052;-87
2021/12/20 09:24:24;;;;;;;7.60;1.50;;;;;;;-1.35;100.00;101697.25;4996022;28;20148;-86
2021/12/20 09:26:51;;;;;;;3.93;1.67;;;;;;;-1.11;100.00;101692.25;4997509;28;20084;-87
2021/12/20 09:29:17;;;;;;;8.10;2.00;;;;;;;-1.11;100.00;101700.03;4995461;28;20084;-86
2021/12/20 09:31:44;;;;;;;4.33;1.53;;;;;;;-1.04;100.00;101702.06;4987001;28;20129;-87
2021/12/20 09:34:11;;;;;;;4.43;1.63;;;;;;;-0.93;100.00;101700.81;4976104;28;20053;-87
2021/12/20 09:36:38;;;;;;;4.93;1.50;;;;;;;-0.88;100.00;101703.63;4993672;28;20140;-86
2021/12/20 09:39:11;;;;;;;4.30;1.50;;;;;;;-0.89;100.00;101707.03;4975678;28;20141;-87
2021/12/20 09:44:06;;;;;;;3.40;1.40;;;;;;;-0.74;100.00;101714.59;4993114;28;20431;-82
2021/12/20 09:46:33;;;;;;;2.97;1.33;;;;;;;-0.75;100.00;101711.13;4983309;28;20045;-88
2021/12/20 09:49:00;;;;;;;5.40;1.70;;;;;;;-0.63;100.00;101722.00;4961297;28;20046;-87
2021/12/20 09:51:27;;;;;;;5.63;1.60;;;;;;;-0.68;100.00;101723.50;4962117;28;20046;-85
2021/12/20 09:53:57;;;;;;;4.13;1.50;;;;;;;-0.63;100.00;101715.91;4972427;28;20092;-89
2021/12/20 09:56:28;;;;;;;4.77;1.90;;;;;;;-0.61;100.00;101714.25;4973342;28;20131;-86
2021/12/20 09:58:57;;;;;;;4.83;1.33;;;;;;;-0.54;100.00;101718.00;4979107;28;20056;-86
2021/12/20 10:01:26;;;;;;;6.17;2.20;;;;;;;-0.34;100.00;101714.50;4962382;28;20418;-87
2021/12/20 10:03:53;;;;;;;3.73;1.60;;;;;;;-0.38;100.00;101721.28;4978856;28;20050;-85
2021/12/20 10:06:20;;;;;;;5.13;2.40;;;;;;;-0.35;100.00;101733.50;4985892;28;20784;-84
2021/12/20 10:08:52;;;;;;;10.03;1.97;;;;;;;-0.21;100.00;101737.56;4948056;28;20563;-84
2021/12/20 10:11:26;;;;;;;7.30;1.67;;;;;;;-0.07;100.00;101736.41;4974958;28;20489;-86
2021/12/20 10:14:02;;;;;;;4.18;1.38;;;;;;;-0.06;100.00;101734.69;4964566;28;20050;-86
2021/12/20 10:16:30;;;;;;;5.90;1.60;;;;;;;0.11;100.00;101733.66;4981021;28;20049;-85
2021/12/20 10:18:58;;;;;;;4.03;1.53;;;;;;;0.22;100.00;101739.25;4971297;28;20128;-87
2021/12/20 10:21:37;;;;;;;2.50;1.57;;;;;;;0.23;100.00;101739.31;4962530;28;20073;-85
2021/12/20 10:24:04;;;;;;;3.10;1.33;;;;;;;0.32;100.00;101733.56;4940969;28;20046;-86
2021/12/20 10:26:39;;;;;;;4.97;1.47;;;;;;;0.44;100.00;101741.84;4942357;28;20824;-88
2021/12/20 10:29:17;;;;;;;5.37;1.67;;;;;;;0.43;100.00;101736.59;4945075;28;20039;-83
2021/12/20 10:31:44;;;;;;;2.83;1.63;;;;;;;0.43;100.00;101750.47;4960053;28;20060;-83
2021/12/20 10:34:13;;;;;;;3.70;1.30;;;;;;;0.57;100.00;101744.06;4961897;28;20080;-83
2021/12/20 10:36:55;;;;;;;2.93;1.50;;;;;;;0.55;100.00;101743.13;4977181;28;20043;-82
2021/12/20 10:39:37;;;;;;;5.33;1.30;;;;;;;0.77;100.00;101742.22;4959979;28;20062;-83
2021/12/20 10:42:19;;;;;;;2.83;1.27;;;;;;;0.87;100.00;101746.03;4966504;28;20069;-83
2021/12/20 10:45:15;;;;;;;3.30;1.03;;;;;;;0.89;100.00;101741.75;4957161;28;20046;-84
2021/12/20 10:47:42;;;;;;;1.53;1.10;;;;;;;1.08;100.00;101743.31;4995471;28;20405;-86
2021/12/20 10:50:34;;;;;;;3.23;1.10;;;;;;;1.26;100.00;101749.19;5001180;28;20069;-86
2021/12/20 10:53:23;;;;;;;3.67;1.50;;;;;;;1.22;100.00;101746.41;4994746;28;20060;-84
2021/12/20 10:55:56;;;;;;;2.23;1.10;;;;;;;1.50;100.00;101751.72;4962913;28;20046;-85
2021/12/20 10:58:43;;;;;;;5.80;1.73;;;;;;;1.63;100.00;101755.63;4964080;28;20053;-85
2021/12/20 11:01:17;;;;;;;11.77;5.40;;;;;;;1.84;100.00;101740.69;4978766;28;20052;-86
2021/12/20 11:03:55;;;;;;;48.03;22.25;;;;;;;2.08;100.00;101740.56;4998834;28;20153;-86
2021/12/20 11:09:06;;;;;;;14.00;8.07;;;;;;;2.13;100.00;101744.22;4993104;28;20459;-88
2021/12/20 11:11:49;;;;;;;6.27;2.60;;;;;;;2.29;100.00;101739.47;4966340;28;20083;-85
2021/12/20 11:14:18;;;;;;;3.23;2.10;;;;;;;2.54;100.00;101740.25;4980333;28;20188;-88
2021/12/20 11:16:49;;;;;;;1.60;0.90;;;;;;;2.64;100.00;101740.53;4982390;28;20132;-85
2021/12/20 11:19:25;;;;;;;2.80;1.33;;;;;;;2.69;100.00;101737.22;4981577;28;20037;-84
2021/12/20 11:22:10;;;;;;;1.20;0.73;;;;;;;2.81;100.00;101736.69;4984660;28;20057;-84
2021/12/20 11:24:53;;;;;;;1.53;0.90;;;;;;;2.94;100.00;101738.78;5000257;28;20056;-85
2021/12/20 11:27:32;;;;;;;4.30;1.07;;;;;;;2.94;99.29;101733.53;5011509;28;20109;-84
2021/12/20 11:30:17;;;;;;;3.63;2.20;;;;;;;3.03;95.48;101738.16;4987578;28;20680;-87
2021/12/20 11:32:45;;;;;;;1.30;0.70;;;;;;;3.13;98.46;101739.31;4980692;28;20391;-85
2021/12/20 11:35:18;;;;;;;2.60;1.07;;;;;;;3.06;94.45;101746.06;4963877;28;20557;-86
2021/12/20 11:37:45;;;;;;;2.57;0.90;;;;;;;3.10;96.87;101734.84;4981798;28;20042;-85
2021/12/20 11:40:15;;;;;;;3.43;0.90;;;;;;;3.03;97.09;101735.56;4976951;28;20056;-84
2021/12/20 11:42:42;;;;;;;3.53;0.80;;;;;;;2.95;95.58;101724.91;4970705;28;20069;-85
2021/12/20 11:45:11;;;;;;;0.93;0.60;;;;;;;3.00;93.00;101727.63;4963028;28;20714;-84
2021/12/20 11:47:59;;;;;;;2.27;1.30;;;;;;;2.97;94.76;101732.78;4974115;28;20511;-85
2021/12/20 11:50:33;;;;;;;3.20;1.20;;;;;;;3.09;95.73;101739.19;4978244;28;20042;-87
2021/12/20 11:53:11;;;;;;;1.17;0.53;;;;;;;2.93;94.87;101733.50;4971903;28;20112;-84
2021/12/20 11:55:44;;;;;;;2.00;1.40;;;;;;;2.69;94.37;101744.13;4980782;28;20057;-84